sensor_id;sensor_type;location;lat;lon;timestamp;temperature;humidity
68789;DHT22;55773;54.444;18.376;2022-07-23T00:00:34;16.99;85.12
68789;DHT22;55773;54.444;18.376;2022-07-23T00:03:02;16.97;85.16
68789;DHT22;55773;54.444;18.376;2022-07-23T00:05:28;16.90;84.22
68789;DHT22;55773;54.444;18.376;2022-07-23T00:07:53;16.88;85.03
68789;DHT22;55773;54.444;18.376;2022-07-23T00:10:19;16.80;84.57
68789;DHT22;55773;54.444;18.376;2022-07-23T00:12:44;16.74;85.00
68789;DHT22;55773;54.444;18.376;2022-07-23T00:15:10;16.72;84.98
68789;DHT22;55773;54.444;18.376;2022-07-23T00:17:36;16.77;85.59
68789;DHT22;55773;54.444;18.376;2022-07-23T00:20:04;16.77;85.01
68789;DHT22;55773;54.444;18.376;2022-07-23T00:22:30;16.76;85.53
68789;DHT22;55773;54.444;18.376;2022-07-23T00:24:56;16.79;85.56
68789;DHT22;55773;54.444;18.376;2022-07-23T00:27:22;16.81;85.84
68789;DHT22;55773;54.444;18.376;2022-07-23T00:29:47;16.85;85.62
68789;DHT22;55773;54.444;18.376;2022-07-23T00:32:13;16.91;85.63
68789;DHT22;55773;54.444;18.376;2022-07-23T00:34:38;16.91;85.66
68789;DHT22;55773;54.444;18.376;2022-07-23T00:37:04;16.94;85.98
68789;DHT22;55773;54.444;18.376;2022-07-23T00:39:29;16.99;85.78
68789;DHT22;55773;54.444;18.376;2022-07-23T00:41:55;17.00;85.96
68789;DHT22;55773;54.444;18.376;2022-07-23T00:44:23;17.03;85.97
68789;DHT22;55773;54.444;18.376;2022-07-23T00:46:55;17.03;85.54
68789;DHT22;55773;54.444;18.376;2022-07-23T00:49:22;17.08;85.58
68789;DHT22;55773;54.444;18.376;2022-07-23T00:51:48;16.99;85.82
68789;DHT22;55773;54.444;18.376;2022-07-23T00:54:15;17.00;85.78
68789;DHT22;55773;54.444;18.376;2022-07-23T00:56:42;16.95;85.35
68789;DHT22;55773;54.444;18.376;2022-07-23T00:59:08;16.94;86.05
68789;DHT22;55773;54.444;18.376;2022-07-23T01:01:34;16.87;84.79
68789;DHT22;55773;54.444;18.376;2022-07-23T01:04:00;16.83;85.45
68789;DHT22;55773;54.444;18.376;2022-07-23T01:06:26;16.79;85.82
68789;DHT22;55773;54.444;18.376;2022-07-23T01:08:53;16.69;85.23
68789;DHT22;55773;54.444;18.376;2022-07-23T01:11:19;16.62;85.48
68789;DHT22;55773;54.444;18.376;2022-07-23T01:13:47;16.63;85.63
68789;DHT22;55773;54.444;18.376;2022-07-23T01:16:13;16.64;85.65
68789;DHT22;55773;54.444;18.376;2022-07-23T01:18:38;16.64;85.64
68789;DHT22;55773;54.444;18.376;2022-07-23T01:21:04;16.62;85.16
68789;DHT22;55773;54.444;18.376;2022-07-23T01:23:30;16.63;85.03
68789;DHT22;55773;54.444;18.376;2022-07-23T01:25:55;16.66;85.52
68789;DHT22;55773;54.444;18.376;2022-07-23T01:28:21;16.73;87.58
68789;DHT22;55773;54.444;18.376;2022-07-23T01:30:47;16.64;88.29
68789;DHT22;55773;54.444;18.376;2022-07-23T01:33:13;16.57;88.86
68789;DHT22;55773;54.444;18.376;2022-07-23T01:35:39;16.53;88.24
68789;DHT22;55773;54.444;18.376;2022-07-23T01:38:04;16.59;88.33
68789;DHT22;55773;54.444;18.376;2022-07-23T01:40:30;16.66;87.67
68789;DHT22;55773;54.444;18.376;2022-07-23T01:42:55;16.56;87.75
68789;DHT22;55773;54.444;18.376;2022-07-23T01:45:21;16.50;87.87
68789;DHT22;55773;54.444;18.376;2022-07-23T01:47:48;16.42;87.88
68789;DHT22;55773;54.444;18.376;2022-07-23T01:50:15;16.43;87.62
68789;DHT22;55773;54.444;18.376;2022-07-23T01:52:41;16.55;86.84
68789;DHT22;55773;54.444;18.376;2022-07-23T01:55:07;16.49;86.21
68789;DHT22;55773;54.444;18.376;2022-07-23T01:57:32;16.45;85.91
68789;DHT22;55773;54.444;18.376;2022-07-23T01:59:58;16.43;86.57
68789;DHT22;55773;54.444;18.376;2022-07-23T02:02:24;16.36;86.25
68789;DHT22;55773;54.444;18.376;2022-07-23T02:04:49;16.32;86.03
68789;DHT22;55773;54.444;18.376;2022-07-23T02:07:16;16.25;85.60
68789;DHT22;55773;54.444;18.376;2022-07-23T02:09:41;16.21;85.89
68789;DHT22;55773;54.444;18.376;2022-07-23T02:12:07;16.11;85.77
68789;DHT22;55773;54.444;18.376;2022-07-23T02:14:33;16.06;85.65
68789;DHT22;55773;54.444;18.376;2022-07-23T02:16:58;16.09;85.48
68789;DHT22;55773;54.444;18.376;2022-07-23T02:19:24;16.08;85.93
68789;DHT22;55773;54.444;18.376;2022-07-23T02:21:50;16.02;85.94
68789;DHT22;55773;54.444;18.376;2022-07-23T02:24:15;16.02;86.26
68789;DHT22;55773;54.444;18.376;2022-07-23T02:26:41;16.06;86.38
68789;DHT22;55773;54.444;18.376;2022-07-23T02:29:07;16.14;85.42
68789;DHT22;55773;54.444;18.376;2022-07-23T02:31:32;16.11;85.77
68789;DHT22;55773;54.444;18.376;2022-07-23T02:34:01;15.98;85.87
68789;DHT22;55773;54.444;18.376;2022-07-23T02:36:27;15.84;85.77
68789;DHT22;55773;54.444;18.376;2022-07-23T02:38:53;15.75;85.03
68789;DHT22;55773;54.444;18.376;2022-07-23T02:41:19;15.68;86.01
68789;DHT22;55773;54.444;18.376;2022-07-23T02:43:44;15.65;85.90
68789;DHT22;55773;54.444;18.376;2022-07-23T02:46:10;15.63;85.96
68789;DHT22;55773;54.444;18.376;2022-07-23T02:48:35;15.60;85.85
68789;DHT22;55773;54.444;18.376;2022-07-23T02:51:03;15.58;85.48
68789;DHT22;55773;54.444;18.376;2022-07-23T02:53:29;15.65;85.72
68789;DHT22;55773;54.444;18.376;2022-07-23T02:55:54;15.67;86.27
68789;DHT22;55773;54.444;18.376;2022-07-23T02:58:20;15.71;86.24
68789;DHT22;55773;54.444;18.376;2022-07-23T03:00:46;15.61;86.27
68789;DHT22;55773;54.444;18.376;2022-07-23T03:03:12;15.58;86.17
68789;DHT22;55773;54.444;18.376;2022-07-23T03:05:38;15.56;85.35
68789;DHT22;55773;54.444;18.376;2022-07-23T03:08:04;15.51;86.08
68789;DHT22;55773;54.444;18.376;2022-07-23T03:10:29;15.51;85.78
68789;DHT22;55773;54.444;18.376;2022-07-23T03:12:55;15.49;85.86
68789;DHT22;55773;54.444;18.376;2022-07-23T03:15:20;15.49;85.95
68789;DHT22;55773;54.444;18.376;2022-07-23T03:17:46;15.47;86.25
68789;DHT22;55773;54.444;18.376;2022-07-23T03:20:11;15.42;86.10
68789;DHT22;55773;54.444;18.376;2022-07-23T03:22:37;15.46;86.28
68789;DHT22;55773;54.444;18.376;2022-07-23T03:25:03;15.51;86.26
68789;DHT22;55773;54.444;18.376;2022-07-23T03:27:29;15.57;86.30
68789;DHT22;55773;54.444;18.376;2022-07-23T03:29:57;15.74;87.13
68789;DHT22;55773;54.444;18.376;2022-07-23T03:32:23;15.81;86.98
68789;DHT22;55773;54.444;18.376;2022-07-23T03:34:49;15.84;86.74
68789;DHT22;55773;54.444;18.376;2022-07-23T03:37:14;15.80;86.75
68789;DHT22;55773;54.444;18.376;2022-07-23T03:39:40;15.83;86.33
68789;DHT22;55773;54.444;18.376;2022-07-23T03:42:06;15.80;86.87
68789;DHT22;55773;54.444;18.376;2022-07-23T03:44:32;15.81;86.03
68789;DHT22;55773;54.444;18.376;2022-07-23T03:46:57;15.74;85.66
68789;DHT22;55773;54.444;18.376;2022-07-23T03:49:23;15.73;85.86
68789;DHT22;55773;54.444;18.376;2022-07-23T03:51:48;15.81;85.29
68789;DHT22;55773;54.444;18.376;2022-07-23T03:54:14;15.80;85.67
68789;DHT22;55773;54.444;18.376;2022-07-23T03:56:40;15.81;86.67
68789;DHT22;55773;54.444;18.376;2022-07-23T03:59:05;15.83;86.27
68789;DHT22;55773;54.444;18.376;2022-07-23T04:01:31;15.94;87.01
68789;DHT22;55773;54.444;18.376;2022-07-23T04:03:56;15.81;87.79
68789;DHT22;55773;54.444;18.376;2022-07-23T04:06:24;15.94;87.54
68789;DHT22;55773;54.444;18.376;2022-07-23T04:08:49;16.09;86.86
68789;DHT22;55773;54.444;18.376;2022-07-23T04:11:15;16.25;85.89
68789;DHT22;55773;54.444;18.376;2022-07-23T04:13:40;16.33;85.97
68789;DHT22;55773;54.444;18.376;2022-07-23T04:16:06;16.36;85.98
68789;DHT22;55773;54.444;18.376;2022-07-23T04:18:31;16.66;85.09
68789;DHT22;55773;54.444;18.376;2022-07-23T04:20:57;16.93;83.77
68789;DHT22;55773;54.444;18.376;2022-07-23T04:23:23;17.11;83.43
68789;DHT22;55773;54.444;18.376;2022-07-23T04:25:48;17.32;83.02
68789;DHT22;55773;54.444;18.376;2022-07-23T04:28:14;17.10;84.50
68789;DHT22;55773;54.444;18.376;2022-07-23T04:30:40;17.17;84.33
68789;DHT22;55773;54.444;18.376;2022-07-23T04:33:05;17.41;83.03
68789;DHT22;55773;54.444;18.376;2022-07-23T04:35:33;17.45;83.57
68789;DHT22;55773;54.444;18.376;2022-07-23T04:37:59;17.62;82.78
68789;DHT22;55773;54.444;18.376;2022-07-23T04:40:25;17.69;82.61
68789;DHT22;55773;54.444;18.376;2022-07-23T04:42:51;17.62;83.34
68789;DHT22;55773;54.444;18.376;2022-07-23T04:45:19;17.46;83.46
68789;DHT22;55773;54.444;18.376;2022-07-23T04:47:44;17.35;84.59
68789;DHT22;55773;54.444;18.376;2022-07-23T04:50:10;17.43;84.54
68789;DHT22;55773;54.444;18.376;2022-07-23T04:52:36;17.52;83.67
68789;DHT22;55773;54.444;18.376;2022-07-23T04:55:02;17.58;83.92
68789;DHT22;55773;54.444;18.376;2022-07-23T04:57:27;17.66;84.12
68789;DHT22;55773;54.444;18.376;2022-07-23T04:59:53;17.55;84.49
68789;DHT22;55773;54.444;18.376;2022-07-23T05:02:24;17.61;83.83
68789;DHT22;55773;54.444;18.376;2022-07-23T05:04:49;17.76;83.39
68789;DHT22;55773;54.444;18.376;2022-07-23T05:07:15;17.79;84.17
68789;DHT22;55773;54.444;18.376;2022-07-23T05:09:40;17.73;84.46
68789;DHT22;55773;54.444;18.376;2022-07-23T05:12:06;17.80;83.64
68789;DHT22;55773;54.444;18.376;2022-07-23T05:14:32;17.65;84.77
68789;DHT22;55773;54.444;18.376;2022-07-23T05:16:59;17.58;85.30
68789;DHT22;55773;54.444;18.376;2022-07-23T05:19:25;17.82;84.67
68789;DHT22;55773;54.444;18.376;2022-07-23T05:21:51;17.78;84.74
68789;DHT22;55773;54.444;18.376;2022-07-23T05:24:16;18.03;84.26
68789;DHT22;55773;54.444;18.376;2022-07-23T05:26:42;18.06;84.35
68789;DHT22;55773;54.444;18.376;2022-07-23T05:29:07;18.01;84.64
68789;DHT22;55773;54.444;18.376;2022-07-23T05:31:33;18.20;83.68
68789;DHT22;55773;54.444;18.376;2022-07-23T05:33:58;18.08;84.22
68789;DHT22;55773;54.444;18.376;2022-07-23T05:36:24;18.31;84.00
68789;DHT22;55773;54.444;18.376;2022-07-23T05:38:52;18.26;83.54
68789;DHT22;55773;54.444;18.376;2022-07-23T05:41:17;18.49;83.35
68789;DHT22;55773;54.444;18.376;2022-07-23T05:43:43;18.62;82.75
68789;DHT22;55773;54.444;18.376;2022-07-23T05:46:09;18.54;81.11
68789;DHT22;55773;54.444;18.376;2022-07-23T05:48:41;18.40;82.45
68789;DHT22;55773;54.444;18.376;2022-07-23T05:51:10;18.52;82.04
68789;DHT22;55773;54.444;18.376;2022-07-23T05:53:36;18.91;80.50
68789;DHT22;55773;54.444;18.376;2022-07-23T05:56:05;19.09;79.62
68789;DHT22;55773;54.444;18.376;2022-07-23T05:58:30;19.28;78.78
68789;DHT22;55773;54.444;18.376;2022-07-23T06:00:57;19.30;78.49
68789;DHT22;55773;54.444;18.376;2022-07-23T06:03:22;19.09;78.68
68789;DHT22;55773;54.444;18.376;2022-07-23T06:05:48;19.27;78.66
68789;DHT22;55773;54.444;18.376;2022-07-23T06:08:13;19.20;77.96
68789;DHT22;55773;54.444;18.376;2022-07-23T06:10:39;19.46;77.51
68789;DHT22;55773;54.444;18.376;2022-07-23T06:13:05;19.53;77.37
68789;DHT22;55773;54.444;18.376;2022-07-23T06:15:30;19.88;76.06
68789;DHT22;55773;54.444;18.376;2022-07-23T06:17:56;19.77;76.79
68789;DHT22;55773;54.444;18.376;2022-07-23T06:20:24;19.82;76.04
68789;DHT22;55773;54.444;18.376;2022-07-23T06:22:49;19.88;74.67
68789;DHT22;55773;54.444;18.376;2022-07-23T06:25:21;20.12;73.51
68789;DHT22;55773;54.444;18.376;2022-07-23T06:27:47;20.29;72.04
68789;DHT22;55773;54.444;18.376;2022-07-23T06:30:13;20.29;72.25
68789;DHT22;55773;54.444;18.376;2022-07-23T06:32:41;20.39;73.27
68789;DHT22;55773;54.444;18.376;2022-07-23T06:35:09;20.53;72.25
68789;DHT22;55773;54.444;18.376;2022-07-23T06:37:34;20.81;71.43
68789;DHT22;55773;54.444;18.376;2022-07-23T06:40:00;21.07;70.80
68789;DHT22;55773;54.444;18.376;2022-07-23T06:42:26;21.00;68.17
68789;DHT22;55773;54.444;18.376;2022-07-23T06:44:51;20.84;69.35
68789;DHT22;55773;54.444;18.376;2022-07-23T06:47:17;20.85;68.22
68789;DHT22;55773;54.444;18.376;2022-07-23T06:49:42;20.80;70.35
68789;DHT22;55773;54.444;18.376;2022-07-23T06:52:11;20.87;70.26
68789;DHT22;55773;54.444;18.376;2022-07-23T06:54:36;21.08;67.23
68789;DHT22;55773;54.444;18.376;2022-07-23T06:57:02;21.07;67.71
68789;DHT22;55773;54.444;18.376;2022-07-23T06:59:27;20.98;66.58
68789;DHT22;55773;54.444;18.376;2022-07-23T07:01:56;21.17;67.79
68789;DHT22;55773;54.444;18.376;2022-07-23T07:04:24;21.38;67.03
68789;DHT22;55773;54.444;18.376;2022-07-23T07:06:49;21.11;68.31
68789;DHT22;55773;54.444;18.376;2022-07-23T07:09:15;20.91;69.79
68789;DHT22;55773;54.444;18.376;2022-07-23T07:11:43;21.00;68.84
68789;DHT22;55773;54.444;18.376;2022-07-23T07:14:08;20.66;70.75
68789;DHT22;55773;54.444;18.376;2022-07-23T07:16:36;20.97;67.94
68789;DHT22;55773;54.444;18.376;2022-07-23T07:19:02;20.88;69.63
68789;DHT22;55773;54.444;18.376;2022-07-23T07:21:28;20.69;70.36
68789;DHT22;55773;54.444;18.376;2022-07-23T07:23:59;20.85;70.69
68789;DHT22;55773;54.444;18.376;2022-07-23T07:26:25;21.29;68.70
68789;DHT22;55773;54.444;18.376;2022-07-23T07:28:51;21.62;68.28
68789;DHT22;55773;54.444;18.376;2022-07-23T07:31:19;21.08;69.11
68789;DHT22;55773;54.444;18.376;2022-07-23T07:33:44;21.29;68.75
68789;DHT22;55773;54.444;18.376;2022-07-23T07:36:11;21.48;68.63
68789;DHT22;55773;54.444;18.376;2022-07-23T07:38:37;21.50;67.76
68789;DHT22;55773;54.444;18.376;2022-07-23T07:41:02;21.66;67.55
68789;DHT22;55773;54.444;18.376;2022-07-23T07:43:28;22.06;65.69
68789;DHT22;55773;54.444;18.376;2022-07-23T07:45:57;22.04;65.84
68789;DHT22;55773;54.444;18.376;2022-07-23T07:48:22;21.45;68.13
68789;DHT22;55773;54.444;18.376;2022-07-23T07:50:48;21.55;67.37
68789;DHT22;55773;54.444;18.376;2022-07-23T07:53:16;21.46;68.27
68789;DHT22;55773;54.444;18.376;2022-07-23T07:55:41;21.66;68.97
68789;DHT22;55773;54.444;18.376;2022-07-23T07:58:07;21.90;68.56
68789;DHT22;55773;54.444;18.376;2022-07-23T08:00:32;21.98;66.68
68789;DHT22;55773;54.444;18.376;2022-07-23T08:02:58;22.07;66.44
68789;DHT22;55773;54.444;18.376;2022-07-23T08:05:26;21.93;67.18
68789;DHT22;55773;54.444;18.376;2022-07-23T08:07:52;22.04;67.06
68789;DHT22;55773;54.444;18.376;2022-07-23T08:10:18;22.08;66.60
68789;DHT22;55773;54.444;18.376;2022-07-23T08:12:50;21.85;66.23
68789;DHT22;55773;54.444;18.376;2022-07-23T08:15:21;22.21;64.74
68789;DHT22;55773;54.444;18.376;2022-07-23T08:17:47;22.43;64.77
68789;DHT22;55773;54.444;18.376;2022-07-23T08:20:16;22.54;63.70
68789;DHT22;55773;54.444;18.376;2022-07-23T08:22:51;22.75;62.99
68789;DHT22;55773;54.444;18.376;2022-07-23T08:25:21;22.99;62.83
68789;DHT22;55773;54.444;18.376;2022-07-23T08:27:46;23.33;60.96
68789;DHT22;55773;54.444;18.376;2022-07-23T08:30:13;23.40;59.74
68789;DHT22;55773;54.444;18.376;2022-07-23T08:35:21;23.39;63.92
68789;DHT22;55773;54.444;18.376;2022-07-23T08:37:47;23.82;62.10
68789;DHT22;55773;54.444;18.376;2022-07-23T08:40:21;23.72;62.90
68789;DHT22;55773;54.444;18.376;2022-07-23T08:42:48;24.18;56.77
68789;DHT22;55773;54.444;18.376;2022-07-23T08:45:20;24.36;57.06
68789;DHT22;55773;54.444;18.376;2022-07-23T08:47:49;24.40;57.94
68789;DHT22;55773;54.444;18.376;2022-07-23T08:50:17;24.43;57.77
68789;DHT22;55773;54.444;18.376;2022-07-23T08:52:45;24.56;59.72
68789;DHT22;55773;54.444;18.376;2022-07-23T08:55:19;24.43;55.96
68789;DHT22;55773;54.444;18.376;2022-07-23T08:57:49;24.50;58.72
68789;DHT22;55773;54.444;18.376;2022-07-23T09:00:16;24.84;58.85
68789;DHT22;55773;54.444;18.376;2022-07-23T09:02:43;24.86;58.20
68789;DHT22;55773;54.444;18.376;2022-07-23T09:05:10;25.10;55.08
68789;DHT22;55773;54.444;18.376;2022-07-23T09:08:12;24.32;57.69
68789;DHT22;55773;54.444;18.376;2022-07-23T09:13:34;24.63;58.54
68789;DHT22;55773;54.444;18.376;2022-07-23T09:18:36;23.77;58.74
68789;DHT22;55773;54.444;18.376;2022-07-23T09:23:45;24.09;59.30
68789;DHT22;55773;54.444;18.376;2022-07-23T09:26:19;24.22;58.30
68789;DHT22;55773;54.444;18.376;2022-07-23T09:29:09;24.48;59.89
68789;DHT22;55773;54.444;18.376;2022-07-23T09:31:47;24.84;56.86
68789;DHT22;55773;54.444;18.376;2022-07-23T09:36:40;24.36;56.67
68789;DHT22;55773;54.444;18.376;2022-07-23T09:39:06;24.44;57.71
68789;DHT22;55773;54.444;18.376;2022-07-23T09:41:41;24.28;56.41
68789;DHT22;55773;54.444;18.376;2022-07-23T09:44:09;23.94;57.74
68789;DHT22;55773;54.444;18.376;2022-07-23T09:46:35;23.78;57.99
68789;DHT22;55773;54.444;18.376;2022-07-23T09:49:10;23.40;61.05
68789;DHT22;55773;54.444;18.376;2022-07-23T09:51:57;23.58;59.41
68789;DHT22;55773;54.444;18.376;2022-07-23T09:54:43;23.64;58.77
68789;DHT22;55773;54.444;18.376;2022-07-23T09:57:11;23.92;58.19
68789;DHT22;55773;54.444;18.376;2022-07-23T09:59:44;23.58;60.82
68789;DHT22;55773;54.444;18.376;2022-07-23T10:02:12;23.51;59.85
68789;DHT22;55773;54.444;18.376;2022-07-23T10:04:39;23.06;61.70
68789;DHT22;55773;54.444;18.376;2022-07-23T10:07:07;23.07;62.05
68789;DHT22;55773;54.444;18.376;2022-07-23T10:09:40;23.19;61.78
68789;DHT22;55773;54.444;18.376;2022-07-23T10:12:12;22.95;62.08
68789;DHT22;55773;54.444;18.376;2022-07-23T10:14:42;22.89;61.62
68789;DHT22;55773;54.444;18.376;2022-07-23T10:17:08;22.45;62.98
68789;DHT22;55773;54.444;18.376;2022-07-23T10:19:34;22.48;62.62
68789;DHT22;55773;54.444;18.376;2022-07-23T10:36:11;22.04;66.77
68789;DHT22;55773;54.444;18.376;2022-07-23T10:38:51;22.18;66.10
68789;DHT22;55773;54.444;18.376;2022-07-23T10:41:31;22.31;64.06
68789;DHT22;55773;54.444;18.376;2022-07-23T10:44:15;22.40;64.72
68789;DHT22;55773;54.444;18.376;2022-07-23T10:47:01;22.58;63.83
68789;DHT22;55773;54.444;18.376;2022-07-23T10:49:31;22.49;64.21
68789;DHT22;55773;54.444;18.376;2022-07-23T10:52:21;22.45;64.23
68789;DHT22;55773;54.444;18.376;2022-07-23T10:54:52;22.59;63.63
68789;DHT22;55773;54.444;18.376;2022-07-23T10:57:23;22.34;64.40
68789;DHT22;55773;54.444;18.376;2022-07-23T11:02:38;22.35;64.06
68789;DHT22;55773;54.444;18.376;2022-07-23T11:05:10;22.28;64.21
68789;DHT22;55773;54.444;18.376;2022-07-23T11:08:09;21.67;67.14
68789;DHT22;55773;54.444;18.376;2022-07-23T11:11:16;21.19;68.05
68789;DHT22;55773;54.444;18.376;2022-07-23T11:13:45;21.05;69.38
68789;DHT22;55773;54.444;18.376;2022-07-23T11:24:10;21.22;68.58
68789;DHT22;55773;54.444;18.376;2022-07-23T11:32:06;20.87;70.04
68789;DHT22;55773;54.444;18.376;2022-07-23T11:37:02;21.02;69.08
68789;DHT22;55773;54.444;18.376;2022-07-23T11:39:29;21.10;69.20
68789;DHT22;55773;54.444;18.376;2022-07-23T11:41:56;21.11;70.04
68789;DHT22;55773;54.444;18.376;2022-07-23T11:47:22;20.83;73.70
68789;DHT22;55773;54.444;18.376;2022-07-23T11:49:57;20.49;76.31
68789;DHT22;55773;54.444;18.376;2022-07-23T11:52:24;20.42;76.48
68789;DHT22;55773;54.444;18.376;2022-07-23T11:57:24;20.67;76.26
68789;DHT22;55773;54.444;18.376;2022-07-23T12:00:01;20.73;75.84
68789;DHT22;55773;54.444;18.376;2022-07-23T12:02:27;20.81;75.86
68789;DHT22;55773;54.444;18.376;2022-07-23T12:04:53;20.80;75.56
68789;DHT22;55773;54.444;18.376;2022-07-23T12:07:39;20.70;75.21
68789;DHT22;55773;54.444;18.376;2022-07-23T12:10:15;20.56;75.56
68789;DHT22;55773;54.444;18.376;2022-07-23T12:12:41;20.43;76.06
68789;DHT22;55773;54.444;18.376;2022-07-23T12:15:08;20.29;76.67
68789;DHT22;55773;54.444;18.376;2022-07-23T12:17:37;20.18;78.50
68789;DHT22;55773;54.444;18.376;2022-07-23T12:20:05;20.11;77.90
68789;DHT22;55773;54.444;18.376;2022-07-23T12:22:43;20.08;79.15
68789;DHT22;55773;54.444;18.376;2022-07-23T12:25:15;19.92;79.49
68789;DHT22;55773;54.444;18.376;2022-07-23T12:27:42;19.89;79.72
68789;DHT22;55773;54.444;18.376;2022-07-23T12:30:24;19.89;80.41
68789;DHT22;55773;54.444;18.376;2022-07-23T12:32:52;19.85;79.94
68789;DHT22;55773;54.444;18.376;2022-07-23T12:35:31;19.88;81.37
68789;DHT22;55773;54.444;18.376;2022-07-23T12:38:02;19.85;82.19
68789;DHT22;55773;54.444;18.376;2022-07-23T12:40:32;20.05;83.31
68789;DHT22;55773;54.444;18.376;2022-07-23T12:43:06;20.26;81.69
68789;DHT22;55773;54.444;18.376;2022-07-23T12:50:55;21.18;78.80
68789;DHT22;55773;54.444;18.376;2022-07-23T12:58:41;21.75;74.90
68789;DHT22;55773;54.444;18.376;2022-07-23T13:01:07;21.77;77.54
68789;DHT22;55773;54.444;18.376;2022-07-23T13:03:39;22.07;75.11
68789;DHT22;55773;54.444;18.376;2022-07-23T13:06:08;21.85;76.15
68789;DHT22;55773;54.444;18.376;2022-07-23T13:08:38;21.76;76.49
68789;DHT22;55773;54.444;18.376;2022-07-23T13:11:05;22.18;74.08
68789;DHT22;55773;54.444;18.376;2022-07-23T13:13:33;22.10;75.83
68789;DHT22;55773;54.444;18.376;2022-07-23T13:15:59;22.33;73.73
68789;DHT22;55773;54.444;18.376;2022-07-23T13:18:26;22.43;76.02
68789;DHT22;55773;54.444;18.376;2022-07-23T13:20:52;22.62;71.40
68789;DHT22;55773;54.444;18.376;2022-07-23T13:23:21;22.24;73.44
68789;DHT22;55773;54.444;18.376;2022-07-23T13:25:47;21.53;75.67
68789;DHT22;55773;54.444;18.376;2022-07-23T13:28:16;21.67;76.57
68789;DHT22;55773;54.444;18.376;2022-07-23T13:30:46;21.70;77.22
68789;DHT22;55773;54.444;18.376;2022-07-23T13:33:13;22.68;73.20
68789;DHT22;55773;54.444;18.376;2022-07-23T13:35:38;23.14;68.70
68789;DHT22;55773;54.444;18.376;2022-07-23T13:38:05;22.76;71.38
68789;DHT22;55773;54.444;18.376;2022-07-23T13:40:37;22.79;68.85
68789;DHT22;55773;54.444;18.376;2022-07-23T13:43:06;22.66;72.32
68789;DHT22;55773;54.444;18.376;2022-07-23T13:45:33;22.51;69.32
68789;DHT22;55773;54.444;18.376;2022-07-23T13:47:58;22.21;72.08
68789;DHT22;55773;54.444;18.376;2022-07-23T13:50:27;22.49;72.49
68789;DHT22;55773;54.444;18.376;2022-07-23T13:52:52;22.66;72.09
68789;DHT22;55773;54.444;18.376;2022-07-23T13:55:18;22.92;70.43
68789;DHT22;55773;54.444;18.376;2022-07-23T13:57:43;23.19;69.06
68789;DHT22;55773;54.444;18.376;2022-07-23T14:00:10;23.03;67.57
68789;DHT22;55773;54.444;18.376;2022-07-23T14:02:38;22.71;67.95
68789;DHT22;55773;54.444;18.376;2022-07-23T14:05:07;22.51;71.65
68789;DHT22;55773;54.444;18.376;2022-07-23T14:07:37;22.41;69.73
68789;DHT22;55773;54.444;18.376;2022-07-23T14:10:04;22.20;70.01
68789;DHT22;55773;54.444;18.376;2022-07-23T14:12:30;21.92;73.23
68789;DHT22;55773;54.444;18.376;2022-07-23T14:14:59;21.48;72.75
68789;DHT22;55773;54.444;18.376;2022-07-23T14:17:24;21.94;72.26
68789;DHT22;55773;54.444;18.376;2022-07-23T14:19:50;22.13;72.84
68789;DHT22;55773;54.444;18.376;2022-07-23T14:22:16;22.64;68.37
68789;DHT22;55773;54.444;18.376;2022-07-23T14:24:44;22.89;70.27
68789;DHT22;55773;54.444;18.376;2022-07-23T14:27:09;23.14;67.12
68789;DHT22;55773;54.444;18.376;2022-07-23T14:29:35;23.19;63.90
68789;DHT22;55773;54.444;18.376;2022-07-23T14:32:02;23.02;66.86
68789;DHT22;55773;54.444;18.376;2022-07-23T14:34:31;22.71;66.72
68789;DHT22;55773;54.444;18.376;2022-07-23T14:36:57;22.30;69.29
68789;DHT22;55773;54.444;18.376;2022-07-23T14:39:23;21.80;70.46
68789;DHT22;55773;54.444;18.376;2022-07-23T14:41:48;22.07;69.05
68789;DHT22;55773;54.444;18.376;2022-07-23T14:44:14;22.37;69.65
68789;DHT22;55773;54.444;18.376;2022-07-23T14:46:42;22.56;69.52
68789;DHT22;55773;54.444;18.376;2022-07-23T14:49:08;22.96;67.29
68789;DHT22;55773;54.444;18.376;2022-07-23T14:51:33;23.20;64.63
68789;DHT22;55773;54.444;18.376;2022-07-23T14:53:59;22.96;65.58
68789;DHT22;55773;54.444;18.376;2022-07-23T14:56:25;22.49;67.99
68789;DHT22;55773;54.444;18.376;2022-07-23T14:58:52;22.30;67.98
68789;DHT22;55773;54.444;18.376;2022-07-23T15:01:21;22.58;66.47
68789;DHT22;55773;54.444;18.376;2022-07-23T15:03:48;22.86;67.44
68789;DHT22;55773;54.444;18.376;2022-07-23T15:06:15;23.16;65.93
68789;DHT22;55773;54.444;18.376;2022-07-23T15:08:44;22.92;65.86
68789;DHT22;55773;54.444;18.376;2022-07-23T15:11:10;23.24;65.29
68789;DHT22;55773;54.444;18.376;2022-07-23T15:13:37;23.20;63.73
68789;DHT22;55773;54.444;18.376;2022-07-23T15:16:03;22.58;65.14
68789;DHT22;55773;54.444;18.376;2022-07-23T15:18:29;22.00;68.96
68789;DHT22;55773;54.444;18.376;2022-07-23T15:20:55;21.59;70.47
68789;DHT22;55773;54.444;18.376;2022-07-23T15:23:21;21.73;69.01
68789;DHT22;55773;54.444;18.376;2022-07-23T15:25:46;21.73;69.65
68789;DHT22;55773;54.444;18.376;2022-07-23T15:28:12;21.87;69.68
68789;DHT22;55773;54.444;18.376;2022-07-23T15:30:37;21.92;69.52
68789;DHT22;55773;54.444;18.376;2022-07-23T15:33:06;21.58;71.17
68789;DHT22;55773;54.444;18.376;2022-07-23T15:35:32;21.52;71.26
68789;DHT22;55773;54.444;18.376;2022-07-23T15:38:00;21.42;71.54
68789;DHT22;55773;54.444;18.376;2022-07-23T15:40:25;21.34;71.10
68789;DHT22;55773;54.444;18.376;2022-07-23T15:42:51;21.39;71.75
68789;DHT22;55773;54.444;18.376;2022-07-23T15:45:16;21.43;70.80
68789;DHT22;55773;54.444;18.376;2022-07-23T15:47:42;21.43;71.43
68789;DHT22;55773;54.444;18.376;2022-07-23T15:50:10;21.50;71.03
68789;DHT22;55773;54.444;18.376;2022-07-23T15:52:36;21.52;70.75
68789;DHT22;55773;54.444;18.376;2022-07-23T15:55:03;21.66;70.56
68789;DHT22;55773;54.444;18.376;2022-07-23T15:57:28;21.75;70.74
68789;DHT22;55773;54.444;18.376;2022-07-23T15:59:56;21.67;70.13
68789;DHT22;55773;54.444;18.376;2022-07-23T16:02:23;21.75;69.05
68789;DHT22;55773;54.444;18.376;2022-07-23T16:04:49;21.82;69.29
68789;DHT22;55773;54.444;18.376;2022-07-23T16:07:19;21.69;69.19
68789;DHT22;55773;54.444;18.376;2022-07-23T16:09:50;21.62;69.47
68789;DHT22;55773;54.444;18.376;2022-07-23T16:12:16;21.70;67.85
68789;DHT22;55773;54.444;18.376;2022-07-23T16:14:42;21.29;69.05
68789;DHT22;55773;54.444;18.376;2022-07-23T16:17:07;21.17;70.38
68789;DHT22;55773;54.444;18.376;2022-07-23T16:19:35;21.10;70.46